Time;durP1;ratioP1;P1;durP2;ratioP2;P2;SDS_P1;SDS_P2;PMS_P1;PMS_P2;Temp;Humidity;BMP_temperature;BMP_pressure;BME280_temperature;BME280_humidity;BME280_pressure;Samples;Min_cycle;Max_cycle;Signal;HPM_P1;HPM_P2
2023/12/18 09:30:22;;;;;;;20.73;12.93;;;;;;;1.49;100.00;100661.97;5146316;27;20547;-85
2023/12/18 09:33:09;;;;;;;20.97;13.23;;;;;;;2.11;100.00;100620.28;5134131;27;39093;-83
2023/12/18 09:35:37;;;;;;;17.73;13.40;;;;;;;2.93;100.00;100647.19;5144470;27;40769;-86
2023/12/18 09:38:06;;;;;;;17.23;12.07;;;;;;;3.44;100.00;100638.25;5131976;27;42892;-86
2023/12/18 09:40:33;;;;;;;20.33;14.00;;;;;;;3.76;100.00;100624.97;5131917;27;41283;-84
2023/12/18 09:46:04;;;;;;;17.17;11.53;;;;;;;4.84;100.00;100674.75;5131986;27;41706;-84
2023/12/18 09:48:31;;;;;;;15.33;11.93;;;;;;;4.89;100.00;100674.72;5131206;27;42170;-84
2023/12/18 09:51:00;;;;;;;14.27;11.40;;;;;;;5.00;99.99;100691.22;5131791;27;41670;-84
2023/12/18 09:53:33;;;;;;;19.00;12.83;;;;;;;5.08;98.49;100678.88;5138059;27;39138;-87
2023/12/18 09:56:01;;;;;;;15.07;11.50;;;;;;;4.95;97.55;100677.25;5152911;27;44070;-86
2023/12/18 09:58:32;;;;;;;14.80;10.77;;;;;;;4.90;97.02;100694.81;5152126;27;41976;-85
2023/12/18 10:01:00;;;;;;;15.60;11.93;;;;;;;5.07;95.14;100671.03;5152573;27;44058;-89
2023/12/18 10:03:29;;;;;;;15.77;11.17;;;;;;;5.69;91.62;100672.84;5152281;27;39697;-85
2023/12/18 10:05:57;;;;;;;14.87;11.20;;;;;;;6.18;88.37;100691.47;5152297;27;41326;-85
2023/12/18 10:08:47;;;;;;;13.00;11.47;;;;;;;6.00;88.36;100645.28;5151854;27;43393;-86
2023/12/18 10:14:05;;;;;;;12.17;9.53;;;;;;;7.82;82.41;100669.03;5151155;27;38911;-85
2023/12/18 10:16:46;;;;;;;13.80;10.13;;;;;;;8.73;78.60;100639.56;5151971;27;40842;-85
2023/12/18 10:19:15;;;;;;;11.83;9.87;;;;;;;10.42;73.32;100677.75;5152101;27;43084;-87
2023/12/18 10:21:52;;;;;;;10.90;9.80;;;;;;;11.39;68.04;100707.94;5152437;27;42149;-86
2023/12/18 10:24:20;;;;;;;11.30;9.43;;;;;;;12.33;65.94;100690.22;5143809;27;39159;-87
2023/12/18 10:27:08;;;;;;;13.33;10.30;;;;;;;11.54;65.09;100696.78;5131398;27;42452;-86
2023/12/18 10:29:59;;;;;;;13.37;10.27;;;;;;;10.93;64.19;100712.22;5148204;27;42749;-86
2023/12/18 10:35:55;;;;;;;12.50;9.67;;;;;;;12.80;62.67;100661.66;5146086;27;41507;-86
2023/12/18 10:38:52;;;;;;;11.53;10.20;;;;;;;14.81;58.39;100673.56;5130575;27;42120;-89
2023/12/18 10:44:26;;;;;;;11.27;10.17;;;;;;;17.35;52.25;100702.91;5116722;27;41442;-87
2023/12/18 10:46:55;;;;;;;11.70;10.50;;;;;;;18.08;49.56;100695.63;5117343;27;41336;-89
2023/12/18 10:49:24;;;;;;;10.03;9.03;;;;;;;18.43;47.58;100698.69;5116964;27;40793;-89
2023/12/18 10:52:34;;;;;;;10.50;9.50;;;;;;;18.55;47.21;100715.81;5117503;27;41800;-87
2023/12/18 10:55:04;;;;;;;9.90;8.87;;;;;;;17.53;47.86;100677.66;5116932;27;41265;-87
2023/12/18 10:57:57;;;;;;;10.50;9.40;;;;;;;17.14;48.29;100690.81;5100518;27;39568;-88
2023/12/18 11:00:45;;;;;;;11.87;9.00;;;;;;;16.34;49.80;100662.50;5116634;27;43563;-87
2023/12/18 11:06:21;;;;;;;10.50;9.47;;;;;;;14.35;52.61;100666.00;5107566;28;43048;-85
2023/12/18 11:08:50;;;;;;;10.93;8.87;;;;;;;13.17;54.41;100582.00;5092827;28;40691;-85
2023/12/18 11:11:20;;;;;;;10.00;9.00;;;;;;;13.06;56.53;100624.16;5075414;28;42140;-90
2023/12/18 11:17:55;;;;;;;11.73;9.03;;;;;;;13.72;54.53;100600.72;5092409;28;43486;-86
2023/12/18 11:20:45;;;;;;;11.80;9.50;;;;;;;13.66;55.13;100601.88;5091884;28;40195;-87
2023/12/18 11:23:13;;;;;;;11.37;9.63;;;;;;;14.55;54.08;100646.41;5075638;28;42316;-89
2023/12/18 11:33:22;;;;;;;10.77;9.53;;;;;;;19.11;45.67;100665.53;5113953;27;39871;-89
2023/12/18 11:35:50;;;;;;;10.03;9.03;;;;;;;17.91;46.86;100661.03;5098450;27;41313;-89
2023/12/18 11:38:19;;;;;;;11.03;9.83;;;;;;;16.63;48.69;100658.19;5098623;27;41849;-88
2023/12/18 11:46:50;;;;;;;9.80;8.13;;;;;;;15.10;51.51;100620.38;5130561;27;42861;-91
2023/12/18 11:49:36;;;;;;;11.70;9.43;;;;;;;15.52;50.99;100618.16;5076067;28;43145;-87
2023/12/18 11:52:25;;;;;;;9.93;8.40;;;;;;;16.68;49.40;100618.66;5076519;28;42147;-87
2023/12/18 11:55:00;;;;;;;11.70;9.00;;;;;;;17.67;47.61;100598.28;5078161;28;41291;-89
2023/12/18 11:57:31;;;;;;;10.00;8.73;;;;;;;18.78;46.92;100623.94;5074360;28;41057;-87
2023/12/18 12:00:00;;;;;;;9.87;8.87;;;;;;;19.24;45.59;100618.06;5078073;28;41736;-89
2023/12/18 12:02:28;;;;;;;10.93;8.73;;;;;;;18.97;45.49;100594.84;5077275;28;41255;-87
2023/12/18 12:05:38;;;;;;;9.70;7.57;;;;;;;18.00;46.58;100592.53;5077528;28;39310;-87
2023/12/18 12:08:06;;;;;;;9.40;8.40;;;;;;;18.50;46.06;100602.59;5088190;27;41193;-85
2023/12/18 12:11:03;;;;;;;9.57;7.60;;;;;;;18.72;45.42;100610.91;5098763;27;42937;-87
2023/12/18 12:13:32;;;;;;;10.10;9.10;;;;;;;18.98;44.91;100575.09;5097580;27;42585;-86
2023/12/18 12:16:08;;;;;;;10.27;8.20;;;;;;;20.52;42.21;100625.72;5098007;27;40066;-86
2023/12/18 12:18:45;;;;;;;8.27;7.47;;;;;;;22.73;39.07;100634.91;5097583;27;42015;-87
2023/12/18 12:21:35;;;;;;;8.20;7.40;;;;;;;24.57;36.76;100619.38;5112469;27;42979;-87
2023/12/18 12:24:04;;;;;;;8.55;7.38;;;;;;;26.51;34.66;100642.16;5077346;28;41350;-88
2023/12/18 12:26:31;;;;;;;7.93;7.13;;;;;;;27.83;32.63;100650.13;5077704;28;40262;-87
2023/12/18 12:29:00;;;;;;;8.00;6.88;;;;;;;28.83;30.78;100626.56;5091660;27;40873;-88
2023/12/18 12:31:47;;;;;;;8.65;7.85;;;;;;;29.70;30.30;100622.19;5098188;27;41627;-86
2023/12/18 12:37:02;;;;;;;6.38;5.88;;;;;;;30.62;27.97;100646.00;5097250;27;40536;-86
2023/12/18 12:40:11;;;;;;;6.30;5.70;;;;;;;30.95;26.95;100652.91;5097362;27;42229;-88
2023/12/18 12:45:45;;;;;;;5.85;5.25;;;;;;;31.49;25.71;100625.41;5096474;27;41021;-88
2023/12/18 12:48:33;;;;;;;6.00;5.45;;;;;;;31.75;24.92;100653.22;5094194;27;40406;-88
2023/12/18 12:51:14;;;;;;;5.30;4.80;;;;;;;31.13;25.51;100611.56;5097903;27;40649;-86
2023/12/18 12:54:14;;;;;;;6.13;5.45;;;;;;;29.66;25.65;100588.94;5097571;27;42053;-90
2023/12/18 12:56:47;;;;;;;6.70;5.25;;;;;;;28.70;27.78;100597.06;5035962;28;42548;-90
2023/12/18 12:59:16;;;;;;;6.50;5.65;;;;;;;27.60;27.65;100563.75;5032790;28;39176;-89
2023/12/18 13:01:50;;;;;;;6.30;5.70;;;;;;;26.65;28.10;100556.50;5016564;28;41818;-93
2023/12/18 13:04:20;;;;;;;6.85;5.95;;;;;;;25.56;29.41;100538.53;5020262;28;43014;-88
2023/12/18 13:06:49;;;;;;;7.50;6.70;;;;;;;24.56;30.14;100584.28;5033276;28;42413;-89
2023/12/18 13:09:19;;;;;;;7.07;6.37;;;;;;;23.02;31.14;100567.56;5032645;28;39396;-89
2023/12/18 13:11:46;;;;;;;7.53;6.83;;;;;;;21.44;32.41;100549.38;5016115;28;41695;-88
2023/12/18 13:14:18;;;;;;;6.97;6.37;;;;;;;20.24;34.28;100529.19;5035524;27;44052;-85
2023/12/18 13:19:47;;;;;;;6.30;5.70;;;;;;;18.29;37.14;100536.00;5092172;28;38968;-86
2023/12/18 13:22:14;;;;;;;6.40;5.60;;;;;;;17.42;38.25;100515.91;5076789;28;41267;-86
2023/12/18 13:24:43;;;;;;;7.57;6.30;;;;;;;16.71;39.30;100500.72;5080017;27;43064;-87
2023/12/18 13:27:31;;;;;;;8.57;6.30;;;;;;;15.74;40.24;100455.78;5090990;27;42871;-86
2023/12/18 13:30:08;;;;;;;8.93;6.47;;;;;;;15.39;41.84;100492.47;5097135;27;39077;-87
2023/12/18 13:32:36;;;;;;;8.43;7.57;;;;;;;14.91;42.10;100493.38;5097111;27;41034;-86
2023/12/18 13:35:15;;;;;;;9.27;7.57;;;;;;;14.38;43.20;100470.41;5095908;27;43066;-86
2023/12/18 13:37:42;;;;;;;9.60;7.80;;;;;;;14.00;44.29;100489.22;5097779;27;43717;-86
2023/12/18 13:45:50;;;;;;;8.47;7.13;;;;;;;12.65;46.29;100436.34;5127749;27;43456;-85
2023/12/18 13:48:18;;;;;;;9.23;7.43;;;;;;;12.54;47.07;100452.78;5097459;27;42680;-86
2023/12/18 13:50:46;;;;;;;8.23;6.97;;;;;;;11.97;47.45;100401.31;5096596;27;38914;-85
2023/12/18 13:53:33;;;;;;;8.23;7.23;;;;;;;11.66;48.29;100392.91;5097292;27;42738;-87
2023/12/18 13:56:01;;;;;;;10.33;7.33;;;;;;;11.77;48.52;100443.78;5096512;27;42458;-86
2023/12/18 13:58:30;;;;;;;9.90;7.37;;;;;;;11.43;48.93;100413.31;5096967;27;41237;-90
2023/12/18 14:00:59;;;;;;;10.33;7.90;;;;;;;10.86;49.20;100355.56;5102954;27;38962;-84
2023/12/18 14:03:27;;;;;;;10.00;7.07;;;;;;;11.16;49.48;100436.50;5097055;27;40898;-87
2023/12/18 14:08:45;;;;;;;8.33;6.77;;;;;;;10.61;50.49;100406.00;5095583;27;43669;-85
2023/12/18 14:14:42;;;;;;;9.37;6.13;;;;;;;10.34;51.87;100402.59;5129988;27;43321;-86
2023/12/18 14:17:11;;;;;;;9.20;6.93;;;;;;;10.17;52.41;100410.22;5067648;28;43261;-86
2023/12/18 14:19:55;;;;;;;8.47;6.83;;;;;;;9.98;52.81;100393.28;5076689;28;43164;-87
2023/12/18 14:22:23;;;;;;;7.47;6.67;;;;;;;9.87;52.74;100395.44;5069098;28;39178;-87
2023/12/18 14:24:51;;;;;;;6.63;5.40;;;;;;;9.42;53.03;100344.97;5059787;28;40845;-88
